createdAt,value
2022-10-02T00:02:13.365Z,8.90
2022-10-02T00:04:50.546Z,8.80
2022-10-02T00:07:22.267Z,8.80
2022-10-02T00:10:00.244Z,8.70
2022-10-02T00:12:33.091Z,8.90
2022-10-02T00:15:16.810Z,8.60
2022-10-02T00:17:50.326Z,8.90
2022-10-02T00:20:24.272Z,8.70
2022-10-02T00:23:01.734Z,8.90
2022-10-02T00:25:45.141Z,8.70
2022-10-02T00:28:28.352Z,8.60
2022-10-02T00:31:22.587Z,8.60
2022-10-02T00:34:14.344Z,8.50
2022-10-02T00:36:53.576Z,8.80
2022-10-02T00:39:37.649Z,8.50
2022-10-02T00:42:50.776Z,8.70
2022-10-02T00:45:42.440Z,8.50
2022-10-02T00:48:30.153Z,8.70
2022-10-02T00:51:09.692Z,8.60
2022-10-02T00:53:49.245Z,8.80
2022-10-02T00:56:35.256Z,8.60
2022-10-02T00:59:25.795Z,8.60
2022-10-02T01:02:02.827Z,8.70
2022-10-02T01:04:37.228Z,8.60
2022-10-02T01:07:10.429Z,8.70
2022-10-02T01:09:41.927Z,8.60
2022-10-02T01:12:14.110Z,8.60
2022-10-02T01:14:47.804Z,8.70
2022-10-02T01:17:26.330Z,8.70
2022-10-02T01:19:57.827Z,8.80
2022-10-02T01:22:34.184Z,8.70
2022-10-02T01:25:09.481Z,8.80
2022-10-02T01:27:40.064Z,8.70
2022-10-02T01:30:14.144Z,8.70
2022-10-02T01:32:46.864Z,8.70
2022-10-02T01:35:17.652Z,8.80
2022-10-02T01:37:48.455Z,8.80
2022-10-02T01:40:31.341Z,8.80
2022-10-02T01:43:04.054Z,8.80
2022-10-02T01:45:54.262Z,8.80
2022-10-02T01:48:44.872Z,8.80
2022-10-02T01:51:47.085Z,8.70
2022-10-02T01:54:24.566Z,8.80
2022-10-02T01:57:08.920Z,8.70
2022-10-02T01:59:49.428Z,8.70
2022-10-02T02:02:26.076Z,8.80
2022-10-02T02:05:01.443Z,8.70
2022-10-02T02:07:39.941Z,8.80
2022-10-02T02:10:22.758Z,8.70
2022-10-02T02:13:02.530Z,8.70
2022-10-02T02:15:42.116Z,8.90
2022-10-02T02:18:17.284Z,8.70
2022-10-02T02:20:51.124Z,8.80
2022-10-02T02:23:25.561Z,8.70
2022-10-02T02:26:01.357Z,8.70
2022-10-02T02:28:35.349Z,8.70
2022-10-02T02:31:08.461Z,8.80
2022-10-02T02:33:44.788Z,8.70
2022-10-02T02:36:21.381Z,8.70
2022-10-02T02:38:54.699Z,8.80
2022-10-02T02:41:29.942Z,8.70
2022-10-02T02:44:08.871Z,8.70
2022-10-02T02:46:56.815Z,8.80
2022-10-02T02:49:28.078Z,8.90
2022-10-02T02:52:02.865Z,9.10
2022-10-02T02:54:38.527Z,8.80
2022-10-02T02:57:11.492Z,8.80
2022-10-02T02:59:47.383Z,8.80
2022-10-02T03:02:17.787Z,8.80
2022-10-02T03:04:47.776Z,8.70
2022-10-02T03:07:20.638Z,8.80
2022-10-02T03:10:01.956Z,8.80
2022-10-02T03:12:43.285Z,8.80
2022-10-02T03:15:32.541Z,8.80
2022-10-02T03:18:32.173Z,8.80
2022-10-02T03:21:11.077Z,8.80
2022-10-02T03:23:52.526Z,8.70
2022-10-02T03:26:30.045Z,8.90
2022-10-02T03:29:03.076Z,8.90
2022-10-02T03:31:38.431Z,8.80
2022-10-02T03:34:08.630Z,8.70
2022-10-02T03:36:40.254Z,8.70
2022-10-02T03:39:24.642Z,8.70
2022-10-02T03:41:57.072Z,8.80
2022-10-02T03:44:26.991Z,8.90
2022-10-02T03:47:00.483Z,8.70
2022-10-02T03:49:30.541Z,8.70
2022-10-02T03:52:01.033Z,8.70
2022-10-02T03:54:36.643Z,8.90
2022-10-02T03:57:08.756Z,8.70
2022-10-02T03:59:45.189Z,8.70
2022-10-02T04:02:26.410Z,8.80
2022-10-02T04:05:02.536Z,8.80
2022-10-02T04:07:38.922Z,8.80
2022-10-02T04:10:32.652Z,8.80
2022-10-02T04:13:10.288Z,8.60
2022-10-02T04:15:55.322Z,8.80
2022-10-02T04:18:34.558Z,8.90
2022-10-02T04:21:12.705Z,8.80
2022-10-02T04:23:50.134Z,8.70
2022-10-02T04:26:25.319Z,8.80
2022-10-02T04:28:59.909Z,8.60
2022-10-02T04:31:31.937Z,8.80
2022-10-02T04:34:08.261Z,9.10
2022-10-02T04:36:48.658Z,8.80
2022-10-02T04:39:35.331Z,9.10
2022-10-02T04:42:26.496Z,8.90
2022-10-02T04:45:15.129Z,8.90
2022-10-02T04:48:29.019Z,8.90
2022-10-02T04:51:12.028Z,8.90
2022-10-02T04:53:57.808Z,9.20
2022-10-02T04:56:50.048Z,8.90
2022-10-02T04:59:39.784Z,8.90
2022-10-02T05:02:23.468Z,8.90
2022-10-02T05:05:08.511Z,8.90
2022-10-02T05:08:04.384Z,8.90
2022-10-02T05:11:00.391Z,8.90
2022-10-02T05:13:52.338Z,9.20
2022-10-02T05:16:44.759Z,8.90
2022-10-02T05:19:37.342Z,8.90
2022-10-02T05:22:29.657Z,8.90
2022-10-02T05:25:16.929Z,8.90
2022-10-02T05:28:02.716Z,9.10
2022-10-02T05:30:37.129Z,8.90
2022-10-02T05:33:32.308Z,8.90
2022-10-02T05:36:24.891Z,8.90
2022-10-02T05:39:11.045Z,8.90
2022-10-02T05:41:50.719Z,8.90
2022-10-02T05:44:25.618Z,8.90
2022-10-02T05:47:03.384Z,8.90
2022-10-02T05:49:38.569Z,8.90
2022-10-02T05:52:14.471Z,9.00
2022-10-02T05:54:50.188Z,9.00
2022-10-02T05:57:32.104Z,9.10
2022-10-02T06:00:15.868Z,9.00
2022-10-02T06:02:52.646Z,9.20
2022-10-02T06:05:28.457Z,9.00
2022-10-02T06:08:02.445Z,9.00
2022-10-02T06:10:35.198Z,9.10
2022-10-02T06:13:12.430Z,9.20
2022-10-02T06:15:49.644Z,9.00
2022-10-02T06:18:24.152Z,9.00
2022-10-02T06:20:59.149Z,9.00
2022-10-02T06:23:37.343Z,9.10
2022-10-02T06:26:13.755Z,9.10
2022-10-02T06:28:51.643Z,9.00
2022-10-02T06:31:30.140Z,9.20
2022-10-02T06:34:00.566Z,9.10
2022-10-02T06:36:56.046Z,9.00
2022-10-02T06:39:50.264Z,9.10
2022-10-02T06:42:32.839Z,9.20
2022-10-02T06:45:12.378Z,9.10
2022-10-02T06:48:00.278Z,9.10
2022-10-02T06:50:53.805Z,9.10
2022-10-02T06:53:48.546Z,9.10
2022-10-02T06:56:34.196Z,9.10
2022-10-02T06:59:17.414Z,9.20
2022-10-02T07:01:57.820Z,9.20
2022-10-02T07:04:51.338Z,9.30
2022-10-02T07:07:37.938Z,9.50
2022-10-02T07:10:32.970Z,9.30
2022-10-02T07:13:25.657Z,9.30
2022-10-02T07:19:12.600Z,9.30
2022-10-02T07:21:49.854Z,9.60
2022-10-02T07:24:42.546Z,9.40
2022-10-02T07:27:18.978Z,9.40
2022-10-02T07:29:57.420Z,9.40
2022-10-02T07:32:49.830Z,9.40
2022-10-02T07:35:35.668Z,9.40
2022-10-02T07:38:43.246Z,9.40
2022-10-02T07:41:44.806Z,9.60
2022-10-02T07:44:27.946Z,9.50
2022-10-02T07:47:07.849Z,9.60
2022-10-02T07:49:48.464Z,9.60
2022-10-02T07:52:29.514Z,9.60
2022-10-02T07:55:10.955Z,9.60
2022-10-02T07:57:49.326Z,9.60
2022-10-02T08:00:21.918Z,9.60
2022-10-02T08:02:57.067Z,9.60
2022-10-02T08:05:31.165Z,9.70
2022-10-02T08:08:09.578Z,9.70
2022-10-02T08:10:42.085Z,9.70
2022-10-02T08:13:21.399Z,9.70
2022-10-02T08:15:55.317Z,9.80
2022-10-02T08:18:34.993Z,9.80
2022-10-02T08:21:07.461Z,9.90
2022-10-02T08:23:44.346Z,10.00
2022-10-02T08:26:22.634Z,10.00
2022-10-02T08:28:57.866Z,10.20
2022-10-02T08:31:29.161Z,10.00
2022-10-02T08:34:00.272Z,9.90
2022-10-02T08:36:58.763Z,9.90
2022-10-02T08:39:50.595Z,10.00
2022-10-02T08:42:57.174Z,9.90
2022-10-02T08:46:06.764Z,9.90
2022-10-02T08:49:16.756Z,10.00
2022-10-02T08:52:07.027Z,10.10
2022-10-02T08:55:20.517Z,10.30
2022-10-02T08:58:14.901Z,10.30
2022-10-02T09:00:57.863Z,10.30
2022-10-02T09:04:01.019Z,10.30
2022-10-02T09:07:06.782Z,10.30
2022-10-02T09:10:27.123Z,10.30
2022-10-02T09:13:22.880Z,10.40
2022-10-02T09:16:09.458Z,10.40
2022-10-02T09:18:53.953Z,10.50
2022-10-02T09:21:42.292Z,10.50
2022-10-02T09:24:50.471Z,10.30
2022-10-02T09:28:05.524Z,10.70
2022-10-02T09:31:22.842Z,10.80
2022-10-02T09:34:24.089Z,10.80
2022-10-02T09:37:18.720Z,10.80
2022-10-02T09:40:33.578Z,10.90
2022-10-02T09:43:51.533Z,10.90
2022-10-02T09:46:57.976Z,10.80
2022-10-02T09:49:57.780Z,10.80
2022-10-02T09:53:00.329Z,10.70
2022-10-02T09:56:05.361Z,10.70
2022-10-02T09:59:07.058Z,10.80
2022-10-02T10:02:06.424Z,10.70
2022-10-02T10:05:06.372Z,10.80
2022-10-02T10:08:12.588Z,11.00
2022-10-02T10:11:07.363Z,11.00
2022-10-02T10:14:11.763Z,11.10
2022-10-02T10:17:20.615Z,11.10
2022-10-02T10:20:16.141Z,11.20
2022-10-02T10:23:07.632Z,11.30
2022-10-02T10:26:04.967Z,11.50
2022-10-02T10:29:12.064Z,12.10
2022-10-02T10:32:18.074Z,12.50
2022-10-02T10:35:28.819Z,12.40
2022-10-02T10:38:33.728Z,12.20
2022-10-02T10:41:17.301Z,12.00
2022-10-02T10:44:17.278Z,11.90
2022-10-02T10:47:18.335Z,11.90
2022-10-02T10:50:16.595Z,11.80
2022-10-02T10:53:17.219Z,11.70
2022-10-02T10:56:11.301Z,11.60
2022-10-02T10:59:01.451Z,11.50
2022-10-02T11:01:43.368Z,11.50
2022-10-02T11:04:47.927Z,11.40
2022-10-02T11:07:40.525Z,11.40
2022-10-02T11:10:31.522Z,11.30
2022-10-02T11:13:16.219Z,11.30
2022-10-02T11:16:15.881Z,11.70
2022-10-02T11:19:05.229Z,12.00
2022-10-02T11:22:08.048Z,12.20
2022-10-02T11:25:12.865Z,12.30
2022-10-02T11:28:12.646Z,12.30
2022-10-02T11:30:59.287Z,12.70
2022-10-02T11:33:50.124Z,13.00
2022-10-02T11:36:45.024Z,13.30
2022-10-02T11:39:26.758Z,13.30
2022-10-02T11:42:21.180Z,13.60
2022-10-02T11:45:19.456Z,13.70
2022-10-02T11:48:29.064Z,13.70
2022-10-02T11:51:31.421Z,13.50
2022-10-02T11:54:28.245Z,13.20
2022-10-02T11:57:19.596Z,12.80
2022-10-02T12:00:16.310Z,12.70
2022-10-02T12:02:58.289Z,12.80
2022-10-02T12:05:45.872Z,12.90
2022-10-02T12:08:30.064Z,12.70
2022-10-02T12:11:07.878Z,12.70
2022-10-02T12:14:04.188Z,12.70
2022-10-02T12:16:48.866Z,13.10
2022-10-02T12:19:36.166Z,13.80
2022-10-02T12:22:32.044Z,14.60
2022-10-02T12:25:26.702Z,14.60
2022-10-02T12:28:05.829Z,14.00
2022-10-02T12:30:43.175Z,13.10
2022-10-02T12:33:30.079Z,12.90
2022-10-02T12:36:22.091Z,12.60
2022-10-02T12:39:08.129Z,12.30
2022-10-02T12:41:59.151Z,12.20
2022-10-02T12:45:02.178Z,12.10
2022-10-02T12:48:11.475Z,11.90
2022-10-02T12:51:06.054Z,11.50
2022-10-02T12:54:04.000Z,11.20
2022-10-02T12:57:38.064Z,11.10
2022-10-02T13:00:15.740Z,11.10
2022-10-02T13:03:15.104Z,11.20
2022-10-02T13:06:18.493Z,11.20
2022-10-02T13:09:06.179Z,11.40
2022-10-02T13:11:46.301Z,11.40
2022-10-02T13:14:50.737Z,11.40
2022-10-02T13:20:30.829Z,11.40
2022-10-02T13:23:16.607Z,11.40
2022-10-02T13:25:58.909Z,11.30
2022-10-02T13:29:02.552Z,11.30
2022-10-02T13:31:45.021Z,11.40
2022-10-02T13:34:29.839Z,11.40
2022-10-02T13:37:13.798Z,11.40
2022-10-02T13:40:13.114Z,11.20
2022-10-02T13:42:58.897Z,11.20
2022-10-02T13:45:35.733Z,11.00
2022-10-02T13:48:17.261Z,10.90
2022-10-02T13:50:55.612Z,10.80
2022-10-02T13:53:47.850Z,10.90
2022-10-02T13:56:32.769Z,10.90
2022-10-02T13:59:20.632Z,11.00
2022-10-02T14:02:10.486Z,11.20
2022-10-02T14:04:58.540Z,11.00
2022-10-02T14:07:48.659Z,11.10
2022-10-02T14:10:33.714Z,11.10
2022-10-02T14:13:25.821Z,11.20
2022-10-02T14:16:12.738Z,11.50
2022-10-02T14:19:10.137Z,11.80
2022-10-02T14:21:45.155Z,11.90
2022-10-02T14:24:53.679Z,12.00
2022-10-02T14:27:51.306Z,12.20
2022-10-02T14:30:25.890Z,12.30
2022-10-02T14:33:06.702Z,12.30
2022-10-02T14:35:42.919Z,12.30
2022-10-02T14:38:39.407Z,12.30
2022-10-02T14:41:28.716Z,12.60
2022-10-02T14:44:17.567Z,12.50
2022-10-02T14:47:03.907Z,12.20
2022-10-02T14:50:00.439Z,12.00
2022-10-02T14:52:53.635Z,11.90
2022-10-02T14:55:39.353Z,11.80
2022-10-02T14:58:33.350Z,11.70
2022-10-02T15:01:17.229Z,12.00
2022-10-02T15:04:16.597Z,11.70
2022-10-02T15:07:01.813Z,11.60
2022-10-02T15:09:38.563Z,11.60
2022-10-02T15:12:17.763Z,11.30
2022-10-02T15:15:04.139Z,11.40
2022-10-02T15:17:55.631Z,11.30
2022-10-02T15:20:36.582Z,11.40
2022-10-02T15:23:09.976Z,11.30
2022-10-02T15:25:58.833Z,11.30
2022-10-02T15:28:39.651Z,11.30
2022-10-02T15:31:21.181Z,11.30
2022-10-02T15:34:08.632Z,11.20
2022-10-02T15:37:11.153Z,11.10
2022-10-02T15:40:08.969Z,11.00
2022-10-02T15:42:57.426Z,10.90
2022-10-02T15:45:58.819Z,10.80
2022-10-02T15:48:55.362Z,10.80
2022-10-02T15:51:44.370Z,10.80
2022-10-02T15:54:29.122Z,10.80
2022-10-02T15:57:34.475Z,10.90
2022-10-02T16:00:16.287Z,10.70
2022-10-02T16:03:06.441Z,10.60
2022-10-02T16:05:53.264Z,10.70
2022-10-02T16:08:57.315Z,10.60
2022-10-02T16:11:59.481Z,10.60
2022-10-02T16:14:45.223Z,10.60
2022-10-02T16:17:38.984Z,10.60
2022-10-02T16:20:40.274Z,10.80
2022-10-02T16:23:35.839Z,10.50
2022-10-02T16:26:18.561Z,10.50
2022-10-02T16:29:15.997Z,10.50
2022-10-02T16:32:08.588Z,10.80
2022-10-02T16:34:45.677Z,10.50
2022-10-02T16:37:27.382Z,10.40
2022-10-02T16:40:02.310Z,10.30
2022-10-02T16:42:49.052Z,10.40
2022-10-02T16:45:42.093Z,10.20
2022-10-02T16:48:19.105Z,10.20
2022-10-02T16:51:08.702Z,10.20
2022-10-02T16:53:45.721Z,10.20
2022-10-02T16:56:23.585Z,10.20
2022-10-02T16:59:01.874Z,10.20
2022-10-02T17:02:05.476Z,10.20
2022-10-02T17:04:50.448Z,10.20
2022-10-02T17:07:43.730Z,10.10
2022-10-02T17:10:25.618Z,10.10
2022-10-02T17:13:03.797Z,10.30
2022-10-02T17:15:51.261Z,10.20
2022-10-02T17:18:31.180Z,10.20
2022-10-02T17:21:11.658Z,10.10
2022-10-02T17:23:52.547Z,10.00
2022-10-02T17:26:33.423Z,10.10
2022-10-02T17:29:10.410Z,10.10
2022-10-02T17:31:53.601Z,10.10
2022-10-02T17:34:28.589Z,10.00
2022-10-02T17:37:09.013Z,10.00
2022-10-02T17:40:02.181Z,10.00
2022-10-02T17:42:45.271Z,10.10
2022-10-02T17:45:28.537Z,9.90
2022-10-02T17:48:20.682Z,9.70
2022-10-02T17:51:47.074Z,9.90
2022-10-02T17:54:37.874Z,10.00
2022-10-02T17:57:21.337Z,9.80
2022-10-02T18:00:06.250Z,9.70
2022-10-02T18:03:02.102Z,9.70
2022-10-02T18:05:41.163Z,9.60
2022-10-02T18:08:35.958Z,9.60
2022-10-02T18:11:10.393Z,9.60
2022-10-02T18:13:59.394Z,9.60
2022-10-02T18:16:40.839Z,9.50
2022-10-02T18:19:30.675Z,9.50
2022-10-02T18:22:30.350Z,9.50
2022-10-02T18:25:33.891Z,9.40
2022-10-02T18:28:26.334Z,9.40
2022-10-02T18:31:08.760Z,9.40
2022-10-02T18:33:58.844Z,9.30
2022-10-02T18:36:42.160Z,9.30
2022-10-02T18:39:20.607Z,9.40
2022-10-02T18:42:00.361Z,9.40
2022-10-02T18:44:46.119Z,9.40
2022-10-02T18:47:31.286Z,9.40
2022-10-02T18:50:13.659Z,9.50
2022-10-02T18:52:55.451Z,9.50
2022-10-02T18:55:43.693Z,9.50
2022-10-02T18:58:31.686Z,9.70
2022-10-02T19:01:20.366Z,9.60
2022-10-02T19:04:18.384Z,9.60
2022-10-02T19:06:55.186Z,9.70
2022-10-02T19:09:28.744Z,9.80
2022-10-02T19:12:01.738Z,9.70
2022-10-02T19:14:41.873Z,9.80
2022-10-02T19:17:19.633Z,9.80
2022-10-02T19:19:49.801Z,9.80
2022-10-02T19:22:23.911Z,9.80
2022-10-02T19:24:57.551Z,9.80
2022-10-02T19:27:32.488Z,9.80
2022-10-02T19:30:08.248Z,9.70
2022-10-02T19:32:43.650Z,9.70
2022-10-02T19:35:19.279Z,9.80
2022-10-02T19:37:52.309Z,9.70
2022-10-02T19:40:24.947Z,9.70
2022-10-02T19:43:02.427Z,9.70
2022-10-02T19:45:38.747Z,9.70
2022-10-02T19:48:12.343Z,9.60
2022-10-02T19:50:46.192Z,9.70
2022-10-02T19:53:26.134Z,9.60
2022-10-02T19:55:59.490Z,9.70
2022-10-02T19:58:37.768Z,9.60
2022-10-02T20:01:20.857Z,9.70
2022-10-02T20:03:54.275Z,9.40
2022-10-02T20:06:26.660Z,9.50
2022-10-02T20:09:00.862Z,9.50
2022-10-02T20:11:38.126Z,9.50
2022-10-02T20:14:15.397Z,9.60
2022-10-02T20:17:01.287Z,9.60
2022-10-02T20:19:35.161Z,9.60
2022-10-02T20:22:13.889Z,9.60
2022-10-02T20:24:52.064Z,9.60
2022-10-02T20:27:30.389Z,9.60
2022-10-02T20:30:06.099Z,9.60
2022-10-02T20:32:46.874Z,9.50
2022-10-02T20:35:22.171Z,9.50
2022-10-02T20:37:55.381Z,9.60
2022-10-02T20:40:28.574Z,9.50
2022-10-02T20:43:03.708Z,9.60
2022-10-02T20:45:42.158Z,9.50
2022-10-02T20:49:07.613Z,9.50
2022-10-02T20:52:20.607Z,9.50
2022-10-02T20:54:57.524Z,9.60
2022-10-02T20:58:01.724Z,9.50
2022-10-02T21:00:45.646Z,9.70
2022-10-02T21:03:38.234Z,9.50
2022-10-02T21:06:36.158Z,9.50
2022-10-02T21:09:29.378Z,9.50
2022-10-02T21:12:20.223Z,9.50
2022-10-02T21:15:15.571Z,9.40
2022-10-02T21:18:17.359Z,9.40
2022-10-02T21:21:11.486Z,9.30
2022-10-02T21:24:13.795Z,9.30
2022-10-02T21:27:19.102Z,9.30
2022-10-02T21:30:04.818Z,9.40
2022-10-02T21:33:07.195Z,9.40
2022-10-02T21:35:47.325Z,9.40
2022-10-02T21:38:47.788Z,9.30
2022-10-02T21:41:48.674Z,9.40
2022-10-02T21:44:54.643Z,9.20
2022-10-02T21:47:57.633Z,9.30
2022-10-02T21:50:48.672Z,9.60
2022-10-02T21:53:52.465Z,9.30
2022-10-02T21:56:52.512Z,9.30
2022-10-02T21:59:53.495Z,9.30
2022-10-02T22:03:06.670Z,9.50
2022-10-02T22:05:57.952Z,9.30
2022-10-02T22:08:35.698Z,9.30
2022-10-02T22:11:12.386Z,9.30
2022-10-02T22:13:44.621Z,9.30
2022-10-02T22:16:25.790Z,9.30
2022-10-02T22:19:03.871Z,9.30
2022-10-02T22:21:54.810Z,9.20
2022-10-02T22:24:54.921Z,9.20
2022-10-02T22:27:56.861Z,9.30
2022-10-02T22:30:29.137Z,9.20
2022-10-02T22:33:14.299Z,9.30
2022-10-02T22:36:03.190Z,9.30
2022-10-02T22:38:38.560Z,9.30
2022-10-02T22:41:20.793Z,9.30
2022-10-02T22:43:54.536Z,9.10
2022-10-02T22:46:41.377Z,9.20
2022-10-02T22:49:21.244Z,9.20
2022-10-02T22:52:01.689Z,9.30
2022-10-02T22:54:41.130Z,9.20
2022-10-02T22:57:18.286Z,9.20
2022-10-02T22:59:56.716Z,9.20
2022-10-02T23:02:34.110Z,9.20
2022-10-02T23:05:12.942Z,9.10
2022-10-02T23:07:52.010Z,9.20
2022-10-02T23:10:32.187Z,9.10
2022-10-02T23:13:15.853Z,9.10
2022-10-02T23:15:55.841Z,9.10
2022-10-02T23:18:42.727Z,9.30
2022-10-02T23:21:26.479Z,9.10
2022-10-02T23:24:09.022Z,9.00
2022-10-02T23:26:46.825Z,9.20
2022-10-02T23:29:27.127Z,9.10
2022-10-02T23:32:03.607Z,9.00
2022-10-02T23:34:41.406Z,9.20
2022-10-02T23:37:20.996Z,9.20
2022-10-02T23:40:01.398Z,9.00
2022-10-02T23:42:35.711Z,9.00
2022-10-02T23:45:11.121Z,9.00
2022-10-02T23:47:58.705Z,9.10
2022-10-02T23:50:39.518Z,9.20
2022-10-02T23:53:52.220Z,9.20
2022-10-02T23:56:50.681Z,9.20
2022-10-02T23:59:35.428Z,9.10
